Time,TemperatureF,DewpointF,PressureIn,WindDirection,WindDirectionDegrees,WindSpeedMPH,WindSpeedGustMPH,Humidity,HourlyPrecipIn,Conditions,Clouds,dailyrainin,SolarRadiationWatts/m^2,SoftwareType,DateUTC
2013-02-15 00:02:00,43.7,41.2,30.10,WNW,286,0.0,-999.0,91,0.00,,,0.00,0,Wunderground v.1.15,2013-02-15 06:02:00,
2013-02-15 00:08:00,43.7,41.2,30.10,WNW,286,0.0,-999.0,91,0.00,,,0.00,0,Wunderground v.1.15,2013-02-15 06:08:00,
2013-02-15 00:14:00,43.8,41.6,30.10,WNW,286,0.0,-999.0,92,0.00,,,0.00,0,Wunderground v.1.15,2013-02-15 06:14:00,
2013-02-15 00:20:00,43.9,41.7,30.10,WNW,286,0.0,-999.0,92,0.00,,,0.00,0,Wunderground v.1.15,2013-02-15 06:20:00,
2013-02-15 00:26:00,44.1,41.9,30.10,WNW,286,0.0,-999.0,92,0.00,,,0.00,0,Wunderground v.1.15,2013-02-15 06:26:00,
2013-02-15 00:32:00,44.1,41.9,30.11,WNW,286,0.0,-999.0,92,0.00,,,0.00,0,Wunderground v.1.15,2013-02-15 06:32:00,
2013-02-15 00:38:00,44.3,42.4,30.10,WNW,286,0.0,-999.0,93,0.00,,,0.00,0,Wunderground v.1.15,2013-02-15 06:38:00,
2013-02-15 00:44:00,44.5,42.6,30.10,WNW,286,0.0,-999.0,93,0.00,,,0.00,0,Wunderground v.1.15,2013-02-15 06:44:00,
2013-02-15 00:50:00,44.8,42.9,30.10,WNW,286,0.0,-999.0,93,0.00,,,0.00,0,Wunderground v.1.15,2013-02-15 06:50:00,
2013-02-15 00:56:00,44.9,43.0,30.11,WNW,286,0.0,-999.0,93,0.00,,,0.00,0,Wunderground v.1.15,2013-02-15 06:56:00,
2013-02-15 01:02:00,45.1,43.2,30.11,WNW,286,0.0,-999.0,93,0.00,,,0.00,0,Wunderground v.1.15,2013-02-15 07:02:00,
2013-02-15 01:08:00,45.0,43.1,30.11,WNW,286,0.0,-999.0,93,0.00,,,0.00,0,Wunderground v.1.15,2013-02-15 07:08:00,
2013-02-15 01:14:00,44.8,42.9,30.11,WNW,286,0.0,-999.0,93,0.00,,,0.00,0,Wunderground v.1.15,2013-02-15 07:14:00,
2013-02-15 01:20:00,44.6,42.7,30.11,WNW,286,0.0,-999.0,93,0.00,,,0.00,0,Wunderground v.1.15,2013-02-15 07:20:00,
2013-02-15 01:26:00,44.5,42.6,30.11,WNW,286,0.0,-999.0,93,0.00,,,0.00,0,Wunderground v.1.15,2013-02-15 07:26:00,
2013-02-15 01:32:00,44.4,42.5,30.11,WNW,286,0.0,-999.0,93,0.00,,,0.00,0,Wunderground v.1.15,2013-02-15 07:32:00,
2013-02-15 01:38:00,44.3,42.4,30.11,WNW,286,0.0,-999.0,93,0.00,,,0.00,0,Wunderground v.1.15,2013-02-15 07:38:00,
2013-02-15 01:44:00,44.2,42.3,30.11,WNW,286,0.0,-999.0,93,0.00,,,0.00,0,Wunderground v.1.15,2013-02-15 07:44:00,
2013-02-15 01:50:00,44.1,42.2,30.11,WNW,286,0.0,-999.0,93,0.00,,,0.00,0,Wunderground v.1.15,2013-02-15 07:50:00,
2013-02-15 01:56:00,44.1,42.2,30.11,WNW,286,0.0,-999.0,93,0.00,,,0.00,0,Wunderground v.1.15,2013-02-15 07:56:00,
2013-02-15 02:02:00,44.1,42.2,30.11,WNW,286,0.0,-999.0,93,0.00,,,0.00,0,Wunderground v.1.15,2013-02-15 08:02:00,
2013-02-15 02:08:00,44.1,42.5,30.11,WNW,286,0.0,-999.0,94,0.00,,,0.00,0,Wunderground v.1.15,2013-02-15 08:08:00,
2013-02-15 02:14:00,44.1,42.5,30.11,WNW,286,0.0,-999.0,94,0.00,,,0.00,0,Wunderground v.1.15,2013-02-15 08:14:00,
2013-02-15 02:20:00,44.2,42.6,30.10,WNW,286,0.0,-999.0,94,0.00,,,0.00,0,Wunderground v.1.15,2013-02-15 08:20:00,
2013-02-15 02:26:00,44.6,43.0,30.10,WNW,286,0.0,-999.0,94,0.00,,,0.00,0,Wunderground v.1.15,2013-02-15 08:26:00,
2013-02-15 02:32:00,44.9,43.3,30.11,WNW,286,0.0,-999.0,94,0.00,,,0.00,0,Wunderground v.1.15,2013-02-15 08:32:00,
2013-02-15 02:38:00,45.3,43.7,30.11,WNW,286,0.0,-999.0,94,0.00,,,0.00,0,Wunderground v.1.15,2013-02-15 08:38:00,
2013-02-15 02:44:00,45.5,44.2,30.11,WNW,286,0.0,-999.0,95,0.00,,,0.00,0,Wunderground v.1.15,2013-02-15 08:44:00,
2013-02-15 02:50:00,45.8,44.4,30.10,WNW,286,0.0,-999.0,95,0.00,,,0.00,0,Wunderground v.1.15,2013-02-15 08:50:00,
2013-02-15 02:56:00,46.1,44.7,30.11,WNW,286,0.0,-999.0,95,0.00,,,0.00,0,Wunderground v.1.15,2013-02-15 08:56:00,
2013-02-15 03:02:00,46.5,45.1,30.11,WNW,286,0.0,-999.0,95,0.00,,,0.00,0,Wunderground v.1.15,2013-02-15 09:02:00,
2013-02-15 03:08:00,46.6,45.2,30.11,WNW,286,0.0,-999.0,95,0.00,,,0.00,0,Wunderground v.1.15,2013-02-15 09:08:00,
2013-02-15 03:14:00,46.9,45.5,30.11,WNW,286,0.0,-999.0,95,0.00,,,0.00,0,Wunderground v.1.15,2013-02-15 09:14:00,
2013-02-15 03:20:00,47.2,45.8,30.11,WNW,286,0.0,-999.0,95,0.00,,,0.00,0,Wunderground v.1.15,2013-02-15 09:20:00,
2013-02-15 03:26:00,47.6,46.2,30.11,WNW,286,0.0,-999.0,95,0.00,,,0.00,0,Wunderground v.1.15,2013-02-15 09:26:00,
2013-02-15 03:32:00,47.6,46.2,30.11,WNW,286,0.0,-999.0,95,0.00,,,0.00,0,Wunderground v.1.15,2013-02-15 09:32:00,
2013-02-15 03:38:00,47.6,46.2,30.11,WNW,286,0.0,-999.0,95,0.00,,,0.00,0,Wunderground v.1.15,2013-02-15 09:38:00,
2013-02-15 03:44:00,47.4,46.0,30.11,WNW,286,0.0,-999.0,95,0.00,,,0.00,0,Wunderground v.1.15,2013-02-15 09:44:00,
2013-02-15 03:50:00,47.3,45.9,30.11,WNW,286,0.0,-999.0,95,0.00,,,0.00,0,Wunderground v.1.15,2013-02-15 09:50:00,
2013-02-15 03:56:00,47.2,45.8,30.11,WNW,286,0.0,-999.0,95,0.00,,,0.00,0,Wunderground v.1.15,2013-02-15 09:56:00,
2013-02-15 04:02:00,47.3,45.9,30.11,WNW,286,0.0,-999.0,95,0.00,,,0.00,0,Wunderground v.1.15,2013-02-15 10:02:00,
2013-02-15 04:08:00,47.2,45.8,30.11,WNW,286,0.0,-999.0,95,0.00,,,0.00,0,Wunderground v.1.15,2013-02-15 10:08:00,
2013-02-15 04:14:00,47.3,45.9,30.11,WNW,286,0.0,-999.0,95,0.00,,,0.00,0,Wunderground v.1.15,2013-02-15 10:14:00,
2013-02-15 04:20:00,47.4,46.0,30.11,WNW,286,0.0,-999.0,95,0.00,,,0.00,0,Wunderground v.1.15,2013-02-15 10:20:00,
2013-02-15 04:26:00,47.5,46.1,30.12,WNW,286,0.0,-999.0,95,0.00,,,0.00,0,Wunderground v.1.15,2013-02-15 10:26:00,
2013-02-15 04:32:00,47.7,46.3,30.12,WNW,286,0.0,-999.0,95,0.00,,,0.00,0,Wunderground v.1.15,2013-02-15 10:32:00,
2013-02-15 04:38:00,47.8,46.4,30.12,WSW,257,0.0,-999.0,95,0.00,,,0.00,0,Wunderground v.1.15,2013-02-15 10:38:00,
2013-02-15 04:44:00,47.8,46.4,30.12,WSW,256,0.0,-999.0,95,0.00,,,0.00,0,Wunderground v.1.15,2013-02-15 10:44:00,
2013-02-15 04:50:00,47.8,46.4,30.12,WSW,253,0.0,-999.0,95,0.00,,,0.00,0,Wunderground v.1.15,2013-02-15 10:50:00,
2013-02-15 04:56:00,47.8,46.7,30.12,WSW,242,0.0,-999.0,96,0.00,,,0.00,0,Wunderground v.1.15,2013-02-15 10:56:00,
2013-02-15 05:02:00,47.8,46.7,30.12,SE,142,0.0,-999.0,96,0.00,,,0.00,0,Wunderground v.1.15,2013-02-15 11:02:00,
2013-02-15 05:08:00,47.8,46.7,30.13,SE,139,0.0,-999.0,96,0.00,,,0.00,0,Wunderground v.1.15,2013-02-15 11:08:00,
2013-02-15 05:14:00,47.9,46.8,30.13,NNE,13,0.0,-999.0,96,0.00,,,0.00,0,Wunderground v.1.15,2013-02-15 11:14:00,
2013-02-15 05:20:00,48.0,46.9,30.13,East,80,0.0,-999.0,96,0.00,,,0.00,0,Wunderground v.1.15,2013-02-15 11:20:00,
2013-02-15 05:26:00,48.0,46.6,30.13,SE,135,0.0,-999.0,95,0.00,,,0.00,0,Wunderground v.1.15,2013-02-15 11:26:00,
2013-02-15 05:32:00,47.9,46.5,30.13,South,190,0.0,-999.0,95,0.00,,,0.00,0,Wunderground v.1.15,2013-02-15 11:32:00,
2013-02-15 05:38:00,47.9,46.5,30.13,ESE,102,0.0,-999.0,95,0.00,,,0.00,0,Wunderground v.1.15,2013-02-15 11:38:00,
2013-02-15 05:44:00,47.8,46.4,30.14,ENE,65,0.0,-999.0,95,0.00,,,0.00,0,Wunderground v.1.15,2013-02-15 11:44:00,
2013-02-15 05:50:00,47.8,46.4,30.14,ENE,73,0.0,-999.0,95,0.00,,,0.00,0,Wunderground v.1.15,2013-02-15 11:50:00,
2013-02-15 05:56:00,47.8,46.4,30.14,ENE,76,0.0,-999.0,95,0.00,,,0.00,0,Wunderground v.1.15,2013-02-15 11:56:00,
2013-02-15 06:02:00,47.8,46.4,30.14,ENE,76,0.0,-999.0,95,0.00,,,0.00,0,Wunderground v.1.15,2013-02-15 12:02:00,
2013-02-15 06:08:00,47.8,46.4,30.14,NNW,333,0.0,-999.0,95,0.00,,,0.00,0,Wunderground v.1.15,2013-02-15 12:08:00,
2013-02-15 06:14:00,47.7,46.3,30.14,NNW,336,0.0,-999.0,95,0.00,,,0.00,0,Wunderground v.1.15,2013-02-15 12:14:00,
2013-02-15 06:20:00,47.7,46.3,30.14,NW,318,0.0,-999.0,95,0.00,,,0.00,0,Wunderground v.1.15,2013-02-15 12:20:00,
2013-02-15 06:26:00,47.7,46.3,30.14,ENE,59,0.0,-999.0,95,0.00,,,0.00,0,Wunderground v.1.15,2013-02-15 12:26:00,
2013-02-15 06:32:00,47.7,46.3,30.15,NNE,17,0.0,-999.0,95,0.00,,,0.00,5,Wunderground v.1.15,2013-02-15 12:32:00,
2013-02-15 06:38:00,47.7,46.3,30.15,NNE,28,0.0,-999.0,95,0.00,,,0.00,9,Wunderground v.1.15,2013-02-15 12:38:00,
2013-02-15 06:44:00,47.8,46.4,30.15,NE,40,0.0,-999.0,95,0.00,,,0.00,11,Wunderground v.1.15,2013-02-15 12:44:00,
2013-02-15 06:50:00,47.9,46.5,30.15,North,360,0.0,-999.0,95,0.00,,,0.00,14,Wunderground v.1.15,2013-02-15 12:50:00,
2013-02-15 06:56:00,47.9,46.5,30.15,NE,34,0.0,-999.0,95,0.00,,,0.00,18,Wunderground v.1.15,2013-02-15 12:56:00,
2013-02-15 07:02:00,47.9,46.5,30.15,NE,34,0.0,-999.0,95,0.00,,,0.00,21,Wunderground v.1.15,2013-02-15 13:02:00,
2013-02-15 07:08:00,47.9,46.5,30.16,NW,325,0.0,-999.0,95,0.00,,,0.00,23,Wunderground v.1.15,2013-02-15 13:08:00,
2013-02-15 07:14:00,48.0,46.6,30.16,ENE,67,0.0,-999.0,95,0.00,,,0.00,26,Wunderground v.1.15,2013-02-15 13:14:00,
2013-02-15 07:20:00,48.1,46.7,30.16,NE,38,0.0,-999.0,95,0.00,,,0.00,28,Wunderground v.1.15,2013-02-15 13:20:00,
2013-02-15 07:26:00,48.1,46.7,30.16,WSW,256,0.0,-999.0,95,0.00,,,0.00,32,Wunderground v.1.15,2013-02-15 13:26:00,
2013-02-15 07:32:00,48.2,46.8,30.16,WSW,256,0.0,-999.0,95,0.00,,,0.00,33,Wunderground v.1.15,2013-02-15 13:32:00,
2013-02-15 07:38:00,48.3,46.9,30.17,WSW,256,0.0,-999.0,95,0.00,,,0.00,39,Wunderground v.1.15,2013-02-15 13:38:00,
2013-02-15 07:44:00,48.5,47.1,30.17,WSW,256,0.0,-999.0,95,0.00,,,0.00,39,Wunderground v.1.15,2013-02-15 13:44:00,
2013-02-15 07:50:00,48.7,47.3,30.17,WSW,256,0.0,-999.0,95,0.00,,,0.00,39,Wunderground v.1.15,2013-02-15 13:50:00,
2013-02-15 07:56:00,48.8,47.4,30.17,North,360,0.0,-999.0,95,0.00,,,0.00,42,Wunderground v.1.15,2013-02-15 13:56:00,
2013-02-15 08:02:00,49.0,47.3,30.17,North,5,0.0,-999.0,94,0.00,,,0.00,42,Wunderground v.1.15,2013-02-15 14:02:00,
2013-02-15 08:08:00,49.1,47.2,30.17,North,5,0.0,-999.0,93,0.00,,,0.01,49,Wunderground v.1.15,2013-02-15 14:08:00,
2013-02-15 08:14:00,49.3,47.1,30.17,NNE,13,0.0,-999.0,92,0.00,,,0.01,46,Wunderground v.1.15,2013-02-15 14:14:00,
2013-02-15 08:20:00,49.6,46.8,30.17,NNE,13,0.0,-999.0,90,0.00,,,0.01,69,Wunderground v.1.15,2013-02-15 14:20:00,
2013-02-15 08:26:00,49.9,46.5,30.18,WNW,284,0.0,-999.0,88,0.00,,,0.01,49,Wunderground v.1.15,2013-02-15 14:26:00,
2013-02-15 08:32:00,50.2,46.2,30.18,WNW,298,0.0,-999.0,86,0.00,,,0.01,74,Wunderground v.1.15,2013-02-15 14:32:00,
2013-02-15 08:38:00,50.5,46.2,30.18,WNW,298,0.0,-999.0,85,0.00,,,0.01,97,Wunderground v.1.15,2013-02-15 14:38:00,
2013-02-15 08:44:00,50.9,46.6,30.18,WNW,298,0.0,-999.0,85,0.00,,,0.01,244,Wunderground v.1.15,2013-02-15 14:44:00,
2013-02-15 08:50:00,51.3,46.6,30.18,WNW,298,0.0,-999.0,84,0.00,,,0.01,448,Wunderground v.1.15,2013-02-15 14:50:00,
2013-02-15 08:56:00,51.6,46.3,30.18,WNW,298,1.0,-999.0,82,0.00,,,0.01,469,Wunderground v.1.15,2013-02-15 14:56:00,
2013-02-15 09:02:00,51.9,46.6,30.17,WNW,299,0.0,-999.0,82,0.00,,,0.01,501,Wunderground v.1.15,2013-02-15 15:02:00,
2013-02-15 09:08:00,52.2,46.9,30.17,North,355,0.0,-999.0,82,0.00,,,0.01,529,Wunderground v.1.15,2013-02-15 15:08:00,
2013-02-15 09:14:00,52.5,46.8,30.18,North,355,1.0,-999.0,81,0.00,,,0.01,552,Wunderground v.1.15,2013-02-15 15:14:00,
2013-02-15 09:20:00,53.0,47.0,30.18,NNW,331,1.0,-999.0,80,0.00,,,0.01,570,Wunderground v.1.15,2013-02-15 15:20:00,
2013-02-15 09:26:00,53.4,47.0,30.17,NW,314,1.0,-999.0,79,0.00,,,0.01,585,Wunderground v.1.15,2013-02-15 15:26:00,
2013-02-15 09:32:00,54.1,47.7,30.18,NNE,18,1.0,-999.0,79,0.00,,,0.01,603,Wunderground v.1.15,2013-02-15 15:32:00,
2013-02-15 09:38:00,54.5,47.8,30.18,NE,48,1.0,-999.0,78,0.00,,,0.01,621,Wunderground v.1.15,2013-02-15 15:38:00,
2013-02-15 09:44:00,54.9,47.8,30.18,NNW,345,1.0,-999.0,77,0.00,,,0.01,638,Wunderground v.1.15,2013-02-15 15:44:00,
2013-02-15 09:50:00,55.5,48.8,30.18,NW,319,1.0,-999.0,78,0.00,,,0.01,650,Wunderground v.1.15,2013-02-15 15:50:00,
2013-02-15 09:56:00,56.0,48.9,30.18,NW,319,0.0,-999.0,77,0.00,,,0.01,666,Wunderground v.1.15,2013-02-15 15:56:00,
2013-02-15 10:02:00,56.2,48.7,30.18,NW,317,1.0,-999.0,76,0.00,,,0.01,682,Wunderground v.1.15,2013-02-15 16:02:00,
2013-02-15 10:08:00,56.5,48.7,30.18,NW,311,1.0,-999.0,75,0.00,,,0.01,694,Wunderground v.1.15,2013-02-15 16:08:00,
2013-02-15 10:14:00,56.9,48.7,30.18,NW,315,1.0,-999.0,74,0.00,,,0.01,705,Wunderground v.1.15,2013-02-15 16:14:00,
2013-02-15 10:20:00,57.2,49.0,30.17,NW,315,1.0,-999.0,74,0.00,,,0.01,721,Wunderground v.1.15,2013-02-15 16:20:00,
2013-02-15 10:26:00,58.1,48.7,30.17,NW,315,0.0,-999.0,71,0.00,,,0.01,733,Wunderground v.1.15,2013-02-15 16:26:00,
2013-02-15 10:32:00,58.4,48.3,30.17,NW,311,1.0,-999.0,69,0.00,,,0.01,745,Wunderground v.1.15,2013-02-15 16:32:00,
2013-02-15 10:38:00,58.8,48.6,30.17,NW,306,1.0,-999.0,69,0.00,,,0.01,754,Wunderground v.1.15,2013-02-15 16:38:00,
2013-02-15 10:44:00,58.9,48.4,30.17,WNW,297,1.0,-999.0,68,0.00,,,0.01,763,Wunderground v.1.15,2013-02-15 16:44:00,
2013-02-15 10:50:00,59.0,48.1,30.16,NNW,334,1.0,-999.0,67,0.00,,,0.01,773,Wunderground v.1.15,2013-02-15 16:50:00,
2013-02-15 10:56:00,59.6,48.2,30.16,NNW,335,0.0,-999.0,66,0.00,,,0.01,784,Wunderground v.1.15,2013-02-15 16:56:00,
2013-02-15 11:02:00,59.7,47.9,30.16,NNW,335,0.0,-999.0,65,0.00,,,0.01,791,Wunderground v.1.15,2013-02-15 17:02:00,
2013-02-15 11:08:00,59.8,47.6,30.16,NW,325,1.0,-999.0,64,0.00,,,0.01,800,Wunderground v.1.15,2013-02-15 17:08:00,
2013-02-15 11:14:00,60.3,48.5,30.15,NW,319,1.0,-999.0,65,0.00,,,0.01,805,Wunderground v.1.15,2013-02-15 17:14:00,
2013-02-15 11:20:00,60.6,47.5,30.15,NW,317,1.0,-999.0,62,0.00,,,0.01,809,Wunderground v.1.15,2013-02-15 17:20:00,
2013-02-15 11:26:00,61.1,47.5,30.15,NW,315,0.0,-999.0,61,0.00,,,0.01,817,Wunderground v.1.15,2013-02-15 17:26:00,
2013-02-15 11:32:00,61.2,46.8,30.15,NW,315,1.0,-999.0,59,0.00,,,0.01,819,Wunderground v.1.15,2013-02-15 17:32:00,
2013-02-15 11:38:00,60.9,47.4,30.14,NW,304,1.0,-999.0,61,0.00,,,0.01,823,Wunderground v.1.15,2013-02-15 17:38:00,
2013-02-15 11:44:00,61.0,47.0,30.14,NW,304,1.0,-999.0,60,0.00,,,0.01,824,Wunderground v.1.15,2013-02-15 17:44:00,
2013-02-15 11:50:00,60.8,46.4,30.14,NW,304,1.0,-999.0,59,0.00,,,0.01,828,Wunderground v.1.15,2013-02-15 17:50:00,
2013-02-15 11:56:00,60.9,46.9,30.13,NW,304,1.0,-999.0,60,0.00,,,0.01,828,Wunderground v.1.15,2013-02-15 17:56:00,
2013-02-15 12:02:00,61.1,46.2,30.13,WNW,287,1.0,-999.0,58,0.00,,,0.01,828,Wunderground v.1.15,2013-02-15 18:02:00,
2013-02-15 12:08:00,61.2,46.3,30.12,WNW,300,1.0,-999.0,58,0.00,,,0.01,830,Wunderground v.1.15,2013-02-15 18:08:00,
2013-02-15 12:14:00,61.5,47.5,30.12,WNW,300,1.0,-999.0,60,0.00,,,0.01,828,Wunderground v.1.15,2013-02-15 18:14:00,
2013-02-15 12:20:00,61.5,45.2,30.12,WNW,300,1.0,-999.0,55,0.00,,,0.01,828,Wunderground v.1.15,2013-02-15 18:20:00,
2013-02-15 12:26:00,62.0,46.6,30.11,WNW,300,1.0,-999.0,57,0.00,,,0.01,826,Wunderground v.1.15,2013-02-15 18:26:00,
2013-02-15 12:32:00,61.8,45.9,30.10,WNW,300,0.0,-999.0,56,0.00,,,0.01,821,Wunderground v.1.15,2013-02-15 18:32:00,
2013-02-15 12:38:00,62.3,43.9,30.10,WNW,300,0.0,-999.0,51,0.00,,,0.01,817,Wunderground v.1.15,2013-02-15 18:38:00,
2013-02-15 12:44:00,62.7,43.3,30.09,WNW,300,0.0,-999.0,49,0.00,,,0.01,814,Wunderground v.1.15,2013-02-15 18:44:00,
2013-02-15 12:50:00,62.9,43.4,30.09,WNW,300,0.0,-999.0,49,0.00,,,0.01,807,Wunderground v.1.15,2013-02-15 18:50:00,
2013-02-15 12:56:00,63.2,44.8,30.09,WNW,300,0.0,-999.0,51,0.00,,,0.01,802,Wunderground v.1.15,2013-02-15 18:56:00,
2013-02-15 13:02:00,63.3,43.8,30.09,WNW,300,1.0,-999.0,49,0.00,,,0.01,793,Wunderground v.1.15,2013-02-15 19:02:00,
2013-02-15 13:08:00,62.7,43.8,30.09,NW,305,1.0,-999.0,50,0.00,,,0.01,784,Wunderground v.1.15,2013-02-15 19:08:00,
2013-02-15 13:14:00,62.7,43.8,30.08,NW,305,1.0,-999.0,50,0.00,,,0.01,777,Wunderground v.1.15,2013-02-15 19:14:00,
2013-02-15 13:20:00,63.0,44.1,30.08,NW,305,1.0,-999.0,50,0.00,,,0.01,766,Wunderground v.1.15,2013-02-15 19:20:00,
2013-02-15 13:26:00,63.6,44.1,30.08,NW,305,1.0,-999.0,49,0.00,,,0.01,759,Wunderground v.1.15,2013-02-15 19:26:00,
2013-02-15 13:32:00,64.0,44.4,30.08,NW,305,1.0,-999.0,49,0.00,,,0.01,747,Wunderground v.1.15,2013-02-15 19:32:00,
2013-02-15 13:38:00,64.4,44.8,30.08,NW,305,0.0,-999.0,49,0.00,,,0.01,738,Wunderground v.1.15,2013-02-15 19:38:00,
2013-02-15 13:44:00,64.5,43.8,30.07,NW,305,0.0,-999.0,47,0.00,,,0.01,726,Wunderground v.1.15,2013-02-15 19:44:00,
2013-02-15 13:50:00,64.3,43.1,30.07,NW,305,0.0,-999.0,46,0.00,,,0.01,715,Wunderground v.1.15,2013-02-15 19:50:00,
2013-02-15 13:56:00,64.4,44.3,30.07,NW,305,0.0,-999.0,48,0.00,,,0.01,701,Wunderground v.1.15,2013-02-15 19:56:00,
2013-02-15 14:02:00,64.9,43.6,30.07,NW,305,0.0,-999.0,46,0.00,,,0.01,691,Wunderground v.1.15,2013-02-15 20:02:00,
2013-02-15 14:08:00,65.3,42.8,30.07,NW,305,0.0,-999.0,44,0.00,,,0.01,679,Wunderground v.1.15,2013-02-15 20:08:00,
2013-02-15 14:14:00,65.6,44.3,30.07,NW,306,0.0,-999.0,46,0.00,,,0.01,661,Wunderground v.1.15,2013-02-15 20:14:00,
2013-02-15 14:20:00,65.7,42.6,30.06,West,279,0.0,-999.0,43,0.00,,,0.01,642,Wunderground v.1.15,2013-02-15 20:20:00,
2013-02-15 14:26:00,66.3,43.7,30.06,SE,144,0.0,-999.0,44,0.00,,,0.01,624,Wunderground v.1.15,2013-02-15 20:26:00,
2013-02-15 14:32:00,67.0,46.1,30.06,SSW,205,0.0,-999.0,47,0.00,,,0.01,606,Wunderground v.1.15,2013-02-15 20:32:00,
2013-02-15 14:38:00,67.4,46.5,30.06,SSW,207,1.0,-999.0,47,0.00,,,0.01,587,Wunderground v.1.15,2013-02-15 20:38:00,
2013-02-15 14:44:00,67.4,46.5,30.06,SSW,207,1.0,-999.0,47,0.00,,,0.01,573,Wunderground v.1.15,2013-02-15 20:44:00,
2013-02-15 14:50:00,66.5,45.6,30.06,SSW,211,0.0,-999.0,47,0.00,,,0.01,554,Wunderground v.1.15,2013-02-15 20:50:00,
2013-02-15 14:56:00,65.6,44.8,30.06,SW,229,1.0,-999.0,47,0.00,,,0.01,534,Wunderground v.1.15,2013-02-15 20:56:00,
2013-02-15 15:02:00,65.1,45.5,30.06,WSW,258,1.0,-999.0,49,0.00,,,0.01,513,Wunderground v.1.15,2013-02-15 21:02:00,
2013-02-15 15:08:00,65.1,46.5,30.05,SSW,208,1.0,-999.0,51,0.00,,,0.01,494,Wunderground v.1.15,2013-02-15 21:08:00,
2013-02-15 15:14:00,65.4,45.7,30.05,East,98,1.0,-999.0,49,0.00,,,0.01,475,Wunderground v.1.15,2013-02-15 21:14:00,
2013-02-15 15:20:00,65.8,46.1,30.05,SSE,157,2.0,-999.0,49,0.00,,,0.01,455,Wunderground v.1.15,2013-02-15 21:20:00,
2013-02-15 15:26:00,66.0,46.3,30.05,SW,219,2.0,-999.0,49,0.00,,,0.01,438,Wunderground v.1.15,2013-02-15 21:26:00,
2013-02-15 15:32:00,66.0,46.8,30.05,South,190,1.0,-999.0,50,0.00,,,0.01,396,Wunderground v.1.15,2013-02-15 21:32:00,
2013-02-15 15:38:00,65.9,46.7,30.05,SSE,165,1.0,-999.0,50,0.00,,,0.01,385,Wunderground v.1.15,2013-02-15 21:38:00,
2013-02-15 15:44:00,65.5,45.8,30.05,SSW,196,1.0,-999.0,49,0.00,,,0.01,325,Wunderground v.1.15,2013-02-15 21:44:00,
2013-02-15 15:50:00,64.9,45.8,30.05,SW,234,1.0,-999.0,50,0.00,,,0.01,114,Wunderground v.1.15,2013-02-15 21:50:00,
2013-02-15 15:56:00,64.1,45.1,30.05,South,182,1.0,-999.0,50,0.00,,,0.01,62,Wunderground v.1.15,2013-02-15 21:56:00,
2013-02-15 16:02:00,63.6,46.1,30.05,SSW,203,1.0,-999.0,53,0.00,,,0.01,86,Wunderground v.1.15,2013-02-15 22:02:00,
2013-02-15 16:08:00,63.0,46.1,30.04,SW,219,1.0,-999.0,54,0.00,,,0.01,56,Wunderground v.1.15,2013-02-15 22:08:00,
2013-02-15 16:14:00,62.5,45.6,30.04,SSW,203,1.0,-999.0,54,0.00,,,0.01,62,Wunderground v.1.15,2013-02-15 22:14:00,
2013-02-15 16:20:00,62.0,46.1,30.05,SSW,193,1.0,-999.0,56,0.00,,,0.01,62,Wunderground v.1.15,2013-02-15 22:20:00,
2013-02-15 16:26:00,61.6,46.7,30.05,North,360,0.0,-999.0,58,0.00,,,0.01,60,Wunderground v.1.15,2013-02-15 22:26:00,
2013-02-15 16:32:00,61.2,46.8,30.05,SSW,212,0.0,-999.0,59,0.00,,,0.01,54,Wunderground v.1.15,2013-02-15 22:32:00,
2013-02-15 16:38:00,60.7,46.7,30.05,SSW,207,0.0,-999.0,60,0.00,,,0.01,69,Wunderground v.1.15,2013-02-15 22:38:00,
2013-02-15 16:44:00,60.4,46.4,30.05,South,179,0.0,-999.0,60,0.00,,,0.01,51,Wunderground v.1.15,2013-02-15 22:44:00,
2013-02-15 16:50:00,60.1,46.6,30.05,SSW,194,1.0,-999.0,61,0.00,,,0.01,51,Wunderground v.1.15,2013-02-15 22:50:00,
2013-02-15 16:56:00,59.8,46.7,30.05,SSW,194,0.0,-999.0,62,0.00,,,0.01,32,Wunderground v.1.15,2013-02-15 22:56:00,
2013-02-15 17:02:00,59.5,46.9,30.05,SE,135,0.0,-999.0,63,0.00,,,0.01,33,Wunderground v.1.15,2013-02-15 23:02:00,
2013-02-15 17:08:00,59.2,46.6,30.05,SSE,167,0.0,-999.0,63,0.00,,,0.01,30,Wunderground v.1.15,2013-02-15 23:08:00,
2013-02-15 17:14:00,58.9,46.7,30.05,SSE,157,0.0,-999.0,64,0.00,,,0.01,21,Wunderground v.1.15,2013-02-15 23:14:00,
2013-02-15 17:20:00,58.6,46.9,30.05,SSW,211,0.0,-999.0,65,0.00,,,0.01,14,Wunderground v.1.15,2013-02-15 23:20:00,
2013-02-15 17:26:00,58.4,47.1,30.05,WSW,240,1.0,-999.0,66,0.00,,,0.01,9,Wunderground v.1.15,2013-02-15 23:26:00,
2013-02-15 17:32:00,58.1,46.8,30.06,SW,219,1.0,-999.0,66,0.00,,,0.01,5,Wunderground v.1.15,2013-02-15 23:32:00,
2013-02-15 17:38:00,57.8,46.9,30.06,South,179,0.0,-999.0,67,0.00,,,0.01,0,Wunderground v.1.15,2013-02-15 23:38:00,
2013-02-15 17:44:00,57.6,46.7,30.05,South,191,0.0,-999.0,67,0.00,,,0.01,0,Wunderground v.1.15,2013-02-15 23:44:00,
2013-02-15 17:50:00,57.3,46.8,30.06,SW,218,0.0,-999.0,68,0.00,,,0.01,0,Wunderground v.1.15,2013-02-15 23:50:00,
2013-02-15 17:56:00,57.1,47.0,30.06,South,179,1.0,-999.0,69,0.00,,,0.01,0,Wunderground v.1.15,2013-02-15 23:56:00,
2013-02-15 18:02:00,57.0,46.9,30.06,SSW,192,0.0,-999.0,69,0.00,,,0.01,0,Wunderground v.1.15,2013-02-16 00:02:00,
2013-02-15 18:08:00,56.9,48.0,30.06,WSW,256,0.0,-999.0,72,0.00,,,0.01,0,Wunderground v.1.15,2013-02-16 00:08:00,
2013-02-15 18:14:00,56.7,47.4,30.06,SSW,200,0.0,-999.0,71,0.00,,,0.01,0,Wunderground v.1.15,2013-02-16 00:14:00,
2013-02-15 18:20:00,56.6,47.3,30.07,WSW,237,0.0,-999.0,71,0.00,,,0.01,0,Wunderground v.1.15,2013-02-16 00:20:00,
2013-02-15 18:26:00,56.4,47.5,30.07,SSW,200,0.0,-999.0,72,0.00,,,0.01,0,Wunderground v.1.15,2013-02-16 00:26:00,
2013-02-15 18:32:00,56.2,47.7,30.07,SSW,200,0.0,-999.0,73,0.00,,,0.01,0,Wunderground v.1.15,2013-02-16 00:32:00,
2013-02-15 18:38:00,56.1,47.6,30.07,SSW,204,0.0,-999.0,73,0.00,,,0.01,0,Wunderground v.1.15,2013-02-16 00:38:00,
2013-02-15 18:44:00,56.0,47.8,30.07,SSW,207,0.0,-999.0,74,0.00,,,0.01,0,Wunderground v.1.15,2013-02-16 00:44:00,
2013-02-15 18:50:00,56.0,48.2,30.07,SSE,166,0.0,-999.0,75,0.00,,,0.01,0,Wunderground v.1.15,2013-02-16 00:50:00,
2013-02-15 18:56:00,56.0,48.2,30.07,SSW,207,0.0,-999.0,75,0.00,,,0.01,0,Wunderground v.1.15,2013-02-16 00:56:00,
2013-02-15 19:02:00,55.9,48.1,30.07,SSW,200,0.0,-999.0,75,0.00,,,0.01,0,Wunderground v.1.15,2013-02-16 01:02:00,
2013-02-15 19:08:00,55.9,48.1,30.07,NNW,338,0.0,-999.0,75,0.00,,,0.01,0,Wunderground v.1.15,2013-02-16 01:08:00,
2013-02-15 19:14:00,56.0,48.2,30.07,East,99,0.0,-999.0,75,0.00,,,0.01,0,Wunderground v.1.15,2013-02-16 01:14:00,
2013-02-15 19:20:00,56.0,48.2,30.08,WSW,239,0.0,-999.0,75,0.00,,,0.01,0,Wunderground v.1.15,2013-02-16 01:20:00,
2013-02-15 19:26:00,56.0,48.2,30.07,SSE,156,0.0,-999.0,75,0.00,,,0.01,0,Wunderground v.1.15,2013-02-16 01:26:00,
2013-02-15 19:32:00,55.9,48.1,30.07,ESE,103,0.0,-999.0,75,0.00,,,0.01,0,Wunderground v.1.15,2013-02-16 01:32:00,
2013-02-15 19:38:00,55.9,48.1,30.07,SW,223,0.0,-999.0,75,0.00,,,0.01,0,Wunderground v.1.15,2013-02-16 01:38:00,
2013-02-15 19:44:00,55.8,48.3,30.08,SE,137,0.0,-999.0,76,0.00,,,0.01,0,Wunderground v.1.15,2013-02-16 01:44:00,
2013-02-15 19:50:00,55.7,48.2,30.08,SE,129,0.0,-999.0,76,0.00,,,0.01,0,Wunderground v.1.15,2013-02-16 01:50:00,
2013-02-15 19:56:00,55.7,48.6,30.08,WNW,293,0.0,-999.0,77,0.00,,,0.01,0,Wunderground v.1.15,2013-02-16 01:56:00,
2013-02-15 20:02:00,55.7,48.6,30.08,East,99,0.0,-999.0,77,0.00,,,0.01,0,Wunderground v.1.15,2013-02-16 02:02:00,
2013-02-15 20:08:00,55.7,48.2,30.08,NE,51,0.0,-999.0,76,0.00,,,0.01,0,Wunderground v.1.15,2013-02-16 02:08:00,
2013-02-15 20:14:00,55.6,48.2,30.08,WSW,240,0.0,-999.0,76,0.00,,,0.01,0,Wunderground v.1.15,2013-02-16 02:14:00,
2013-02-15 20:20:00,55.4,48.0,30.08,SSE,153,0.0,-999.0,76,0.00,,,0.01,0,Wunderground v.1.15,2013-02-16 02:20:00,
2013-02-15 20:26:00,55.3,47.9,30.08,SSE,161,0.0,-999.0,76,0.00,,,0.01,0,Wunderground v.1.15,2013-02-16 02:26:00,
2013-02-15 20:32:00,55.3,47.9,30.08,WSW,253,0.0,-999.0,76,0.00,,,0.01,0,Wunderground v.1.15,2013-02-16 02:32:00,
2013-02-15 20:38:00,55.2,47.8,30.09,NNE,12,1.0,-999.0,76,0.00,,,0.01,0,Wunderground v.1.15,2013-02-16 02:38:00,
2013-02-15 20:44:00,55.2,47.8,30.09,South,190,0.0,-999.0,76,0.00,,,0.01,0,Wunderground v.1.15,2013-02-16 02:44:00,
2013-02-15 20:50:00,55.1,47.7,30.09,SSW,192,0.0,-999.0,76,0.00,,,0.01,0,Wunderground v.1.15,2013-02-16 02:50:00,
2013-02-15 20:56:00,55.1,47.7,30.09,West,263,0.0,-999.0,76,0.00,,,0.01,0,Wunderground v.1.15,2013-02-16 02:56:00,
2013-02-15 21:02:00,55.0,47.9,30.09,SSW,209,0.0,-999.0,77,0.00,,,0.01,0,Wunderground v.1.15,2013-02-16 03:02:00,
2013-02-15 21:08:00,55.0,48.3,30.09,South,184,0.0,-999.0,78,0.00,,,0.01,0,Wunderground v.1.15,2013-02-16 03:08:00,
2013-02-15 21:14:00,55.0,47.9,30.09,SW,232,0.0,-999.0,77,0.00,,,0.01,0,Wunderground v.1.15,2013-02-16 03:14:00,
2013-02-15 21:20:00,55.0,48.3,30.09,ESE,123,1.0,-999.0,78,0.00,,,0.01,0,Wunderground v.1.15,2013-02-16 03:20:00,
2013-02-15 21:26:00,55.0,48.3,30.09,NW,325,1.0,-999.0,78,0.00,,,0.01,0,Wunderground v.1.15,2013-02-16 03:26:00,
2013-02-15 21:32:00,55.0,48.3,30.08,West,279,0.0,-999.0,78,0.00,,,0.01,0,Wunderground v.1.15,2013-02-16 03:32:00,
2013-02-15 21:38:00,55.1,48.4,30.09,WNW,297,0.0,-999.0,78,0.00,,,0.01,0,Wunderground v.1.15,2013-02-16 03:38:00,
2013-02-15 21:44:00,55.0,48.3,30.09,SW,229,0.0,-999.0,78,0.00,,,0.01,0,Wunderground v.1.15,2013-02-16 03:44:00,
2013-02-15 21:50:00,55.0,48.3,30.09,South,182,0.0,-999.0,78,0.00,,,0.01,0,Wunderground v.1.15,2013-02-16 03:50:00,
2013-02-15 21:56:00,54.9,48.2,30.09,NE,35,0.0,-999.0,78,0.00,,,0.01,0,Wunderground v.1.15,2013-02-16 03:56:00,
2013-02-15 22:02:00,54.9,48.2,30.09,ESE,109,0.0,-999.0,78,0.00,,,0.01,0,Wunderground v.1.15,2013-02-16 04:02:00,
2013-02-15 22:08:00,54.8,48.1,30.09,SSE,161,1.0,-999.0,78,0.00,,,0.01,0,Wunderground v.1.15,2013-02-16 04:08:00,
2013-02-15 22:14:00,54.8,48.1,30.09,North,11,1.0,-999.0,78,0.00,,,0.01,0,Wunderground v.1.15,2013-02-16 04:14:00,
2013-02-15 22:20:00,54.8,48.1,30.09,NNW,348,0.0,-999.0,78,0.00,,,0.01,0,Wunderground v.1.15,2013-02-16 04:20:00,
2013-02-15 22:26:00,54.8,48.4,30.08,NE,38,0.0,-999.0,79,0.00,,,0.01,0,Wunderground v.1.15,2013-02-16 04:26:00,
2013-02-15 22:32:00,54.7,48.3,30.08,SSW,208,0.0,-999.0,79,0.00,,,0.01,0,Wunderground v.1.15,2013-02-16 04:32:00,
2013-02-15 22:38:00,54.7,48.6,30.08,ESE,113,0.0,-999.0,80,0.00,,,0.01,0,Wunderground v.1.15,2013-02-16 04:38:00,
2013-02-15 22:44:00,54.7,48.6,30.08,WSW,246,0.0,-999.0,80,0.00,,,0.01,0,Wunderground v.1.15,2013-02-16 04:44:00,
2013-02-15 22:50:00,54.6,48.6,30.08,NNW,340,0.0,-999.0,80,0.00,,,0.01,0,Wunderground v.1.15,2013-02-16 04:50:00,
2013-02-15 22:56:00,54.6,48.9,30.08,NW,304,0.0,-999.0,81,0.00,,,0.01,0,Wunderground v.1.15,2013-02-16 04:56:00,
2013-02-15 23:00:00,54.5,48.5,30.08,WNW,302,0.0,-999.0,80,0.00,,,0.01,0,Wunderground v.1.15,2013-02-16 05:00:00,
2013-02-15 23:02:00,54.5,48.8,30.08,NNW,331,1.0,-999.0,81,0.00,,,0.01,0,Wunderground v.1.15,2013-02-16 05:02:00,
2013-02-15 23:08:00,54.6,48.9,30.08,West,279,1.0,-999.0,81,0.00,,,0.01,0,Wunderground v.1.15,2013-02-16 05:08:00,
2013-02-15 23:10:00,54.7,49.0,30.08,ENE,57,1.0,-999.0,81,0.00,,,0.01,0,Wunderground v.1.15,2013-02-16 05:10:00,
2013-02-15 23:16:00,54.7,49.0,30.08,WSW,243,1.0,-999.0,81,0.00,,,0.01,0,Wunderground v.1.15,2013-02-16 05:16:00,
2013-02-15 23:18:00,54.7,49.0,30.08,West,265,1.0,-999.0,81,0.00,,,0.01,0,Wunderground v.1.15,2013-02-16 05:18:00,
2013-02-15 23:24:00,54.6,48.9,30.08,NW,304,1.0,-999.0,81,0.00,,,0.01,0,Wunderground v.1.15,2013-02-16 05:24:00,
2013-02-15 23:28:00,54.6,48.9,30.08,WNW,285,1.0,-999.0,81,0.00,,,0.01,0,Wunderground v.1.15,2013-02-16 05:28:00,
2013-02-15 23:34:00,54.5,48.8,30.08,NW,319,1.0,-999.0,81,0.00,,,0.01,0,Wunderground v.1.15,2013-02-16 05:34:00,
2013-02-15 23:40:00,54.5,48.8,30.08,SSE,149,1.0,-999.0,81,0.00,,,0.01,0,Wunderground v.1.15,2013-02-16 05:40:00,
2013-02-15 23:46:00,54.4,48.7,30.08,WNW,297,1.0,-999.0,81,0.00,,,0.01,0,Wunderground v.1.15,2013-02-16 05:46:00,
2013-02-15 23:52:00,54.3,48.6,30.08,WNW,296,1.0,-999.0,81,0.00,,,0.01,0,Wunderground v.1.15,2013-02-16 05:52:00,
2013-02-15 23:58:00,54.2,48.2,30.08,NW,319,1.0,-999.0,80,0.00,,,0.01,0,Wunderground v.1.15,2013-02-16 05:58:00,